Tracy, Missouri
Current Conditions -  °F | °C
As of 6:53 PM on Friday 19 Dec 2014 (Local Time) from KMCI Reporting Station
Haze Haze  
Wind Chill: 32°   Ceiling: 1200
Heat Index: 32°   Visibility: 6mi
Dew Point: 30°   Wind: 3mph
Humidity: 92%   Direction: 220°SW
Pressure: 30.2"   Gusts: NA
Location:  39.3588°N, 94.8136°W
Report Text: KMCI 200053Z 22003KT 6SM BR OVC012 00/M01 A3020 RMK AO2 SLP234 T00001011 $
Loading
Personal Weather Stations






























Interactive Weather Map New forecast layout! Learn more

10-Day Weather Forecast

Advertisements
Track Severe Weather on mobile